Terminal Aerodrome Forecast
Issued by NWS

Home | Current Version | Previous Version | Graphics & Text | Print | Product List | Glossary On
Versions: 1 2 3 4 5 6 7 8 9 10 11 12 13 14 15 16 17 18 19 20
000
FTUS43 KMPX 282343
TAFRNH
TAF
KRNH 282343Z 2900/2924 16008KT P6SM FEW035
     FM290800 16003KT 4SM BR SCT005
      TEMPO 2909/2912 1 1/2SM TSRA BR BKN050CB
     FM291400 18008KT P6SM BKN015=

USA.gov is the U.S. government's official web portal to all federal, state and local government web resources and services.